createdAt,value
2017-12-17T00:00:33.313Z,99255.41
2017-12-17T00:06:36.919Z,99255.66
2017-12-17T00:12:41.226Z,99261.71
2017-12-17T00:18:44.782Z,99264.56
2017-12-17T00:24:48.288Z,99258.27
2017-12-17T00:30:51.979Z,99261.08
2017-12-17T00:36:56.371Z,99257.86
2017-12-17T00:43:00.026Z,99268.28
2017-12-17T00:49:04.447Z,99268.45
2017-12-17T00:55:07.992Z,99285.83
2017-12-17T01:01:11.526Z,99293.27
2017-12-17T01:07:15.041Z,99291.58
2017-12-17T01:13:19.394Z,99302.75
2017-12-17T01:19:25.022Z,99315.28
2017-12-17T01:25:29.607Z,99317.11
2017-12-17T01:31:33.251Z,99325.21
2017-12-17T01:37:37.529Z,99333.19
2017-12-17T01:43:41.807Z,99343.95
2017-12-17T01:49:46.057Z,99344.70
2017-12-17T01:55:49.610Z,99356.70
2017-12-17T02:01:53.390Z,99358.09
2017-12-17T02:07:57.796Z,99354.30
2017-12-17T02:14:01.451Z,99352.00
2017-12-17T02:20:04.946Z,99352.09
2017-12-17T02:26:08.688Z,99344.81
2017-12-17T02:32:12.270Z,99344.89
2017-12-17T02:38:15.838Z,99347.13
2017-12-17T02:44:20.122Z,99352.75
2017-12-17T02:50:24.733Z,99357.27
2017-12-17T02:56:28.315Z,99365.33
2017-12-17T03:02:32.614Z,99369.30
2017-12-17T03:08:36.862Z,99377.00
2017-12-17T03:14:40.351Z,99378.89
2017-12-17T03:20:44.623Z,99388.34
2017-12-17T03:26:48.888Z,99397.53
2017-12-17T03:32:53.922Z,99393.50
2017-12-17T03:38:57.451Z,99407.19
2017-12-17T03:45:01.205Z,99398.64
2017-12-17T03:51:05.532Z,99406.22
2017-12-17T03:57:09.035Z,99407.05
2017-12-17T04:03:13.534Z,99423.06
2017-12-17T04:09:17.018Z,99426.38
2017-12-17T04:15:20.996Z,99430.22
2017-12-17T04:21:24.670Z,99440.26
2017-12-17T04:27:28.961Z,99446.23
2017-12-17T04:33:33.251Z,99447.34
2017-12-17T04:39:37.556Z,99446.56
2017-12-17T04:45:41.173Z,99449.03
2017-12-17T04:51:44.804Z,99458.34
2017-12-17T04:57:49.184Z,99467.45
2017-12-17T05:03:53.431Z,99462.58
2017-12-17T05:09:56.986Z,99474.25
2017-12-17T05:16:00.721Z,99479.02
2017-12-17T05:22:04.218Z,99489.03
2017-12-17T05:28:07.856Z,99489.29
2017-12-17T05:34:12.872Z,99495.64
2017-12-17T05:40:16.401Z,99508.03
2017-12-17T05:46:19.914Z,99508.11
2017-12-17T05:52:23.815Z,99522.84
2017-12-17T05:58:27.434Z,99525.78
2017-12-17T06:04:30.995Z,99530.86
2017-12-17T06:10:34.572Z,99541.52
2017-12-17T06:16:38.231Z,99550.02
2017-12-17T06:22:41.901Z,99551.05
2017-12-17T06:28:45.399Z,99546.39
2017-12-17T06:34:48.904Z,99550.44
2017-12-17T06:40:52.850Z,99565.91
2017-12-17T06:46:57.071Z,99564.85
2017-12-17T06:53:00.612Z,99586.36
2017-12-17T06:59:04.384Z,99583.19
2017-12-17T07:05:09.041Z,99604.48
2017-12-17T07:11:12.595Z,99612.42
2017-12-17T07:17:16.094Z,99607.55
2017-12-17T07:23:19.669Z,99608.80
2017-12-17T07:29:24.326Z,99614.92
2017-12-17T07:35:27.866Z,99627.20
2017-12-17T07:41:32.133Z,99642.02
2017-12-17T07:47:36.417Z,99655.50
2017-12-17T07:53:40.776Z,99655.57
2017-12-17T07:59:44.265Z,99668.47
2017-12-17T08:05:47.759Z,99686.27
2017-12-17T08:11:51.327Z,99688.87
2017-12-17T08:17:55.636Z,99695.62
2017-12-17T08:23:59.150Z,99713.31
2017-12-17T08:30:03.423Z,99717.20
2017-12-17T08:36:07.696Z,99727.44
2017-12-17T08:42:11.195Z,99729.81
2017-12-17T08:48:14.684Z,99742.91
2017-12-17T08:54:18.528Z,99743.71
2017-12-17T09:00:22.094Z,99750.53
2017-12-17T09:06:25.885Z,99762.03
2017-12-17T09:12:29.480Z,99770.47
2017-12-17T09:18:32.996Z,99773.88
2017-12-17T09:24:36.594Z,99786.23
2017-12-17T09:30:40.089Z,99793.80
2017-12-17T09:36:43.687Z,99796.95
2017-12-17T09:42:48.070Z,99800.40
2017-12-17T09:48:51.596Z,99801.31
2017-12-17T09:54:55.471Z,99807.79
2017-12-17T10:00:59.867Z,99807.86
2017-12-17T10:07:03.451Z,99805.21
2017-12-17T10:13:06.953Z,99815.69
2017-12-17T10:19:11.476Z,99818.27
2017-12-17T10:25:15.018Z,99815.69
2017-12-17T10:31:19.529Z,99819.73
2017-12-17T10:37:23.640Z,99825.04
2017-12-17T10:43:27.336Z,99830.53
2017-12-17T10:49:30.983Z,99835.75
2017-12-17T10:55:34.789Z,99844.91
2017-12-17T11:01:38.278Z,99842.82
2017-12-17T11:07:42.568Z,99850.97
2017-12-17T11:13:46.079Z,99851.66
2017-12-17T11:19:49.593Z,99865.20
2017-12-17T11:25:53.360Z,99861.30
2017-12-17T11:31:56.886Z,99854.94
2017-12-17T11:38:00.690Z,99858.42
2017-12-17T11:44:04.231Z,99864.30
2017-12-17T11:50:07.760Z,99863.53
2017-12-17T11:56:11.242Z,99869.67
2017-12-17T12:02:14.835Z,99867.55
2017-12-17T12:08:18.888Z,99880.13
2017-12-17T12:14:23.080Z,99876.41
2017-12-17T12:20:27.680Z,99883.53
2017-12-17T12:26:31.178Z,99887.73
2017-12-17T12:32:34.716Z,99889.47
2017-12-17T12:38:38.237Z,99883.34
2017-12-17T12:44:42.590Z,99885.84
2017-12-17T12:50:46.181Z,99884.78
2017-12-17T12:56:49.708Z,99877.06
2017-12-17T13:02:53.436Z,99878.72
2017-12-17T13:08:57.347Z,99875.87
2017-12-17T13:15:01.614Z,99874.74
2017-12-17T13:21:05.898Z,99890.37
2017-12-17T13:27:09.724Z,99890.30
2017-12-17T13:33:13.321Z,99893.78
2017-12-17T13:39:16.962Z,99893.19
2017-12-17T13:45:21.234Z,99903.34
2017-12-17T13:51:25.169Z,99902.92
2017-12-17T13:57:28.671Z,99902.23
2017-12-17T14:03:32.463Z,99915.64
2017-12-17T14:09:36.220Z,99928.24
2017-12-17T14:15:39.736Z,99935.42
2017-12-17T14:21:43.301Z,99948.59
2017-12-17T14:27:47.093Z,99950.33
2017-12-17T14:33:51.069Z,99948.52
2017-12-17T14:39:54.792Z,99952.06
2017-12-17T14:45:59.440Z,99964.32
2017-12-17T14:52:03.699Z,99969.27
2017-12-17T14:58:07.198Z,99974.57
2017-12-17T15:04:10.694Z,99977.64
2017-12-17T15:10:14.199Z,99984.10
2017-12-17T15:16:17.714Z,99997.16
2017-12-17T15:22:21.276Z,100002.50
2017-12-17T15:28:25.570Z,100011.48
2017-12-17T15:34:29.827Z,100016.92
2017-12-17T15:40:34.103Z,100029.47
2017-12-17T15:46:38.551Z,100037.64
2017-12-17T15:52:42.078Z,100037.76
2017-12-17T15:58:45.639Z,100045.41
2017-12-17T16:04:49.172Z,100047.84
2017-12-17T16:10:53.326Z,100056.19
2017-12-17T16:16:57.116Z,100056.33
2017-12-17T16:23:01.578Z,100052.83
2017-12-17T16:29:05.086Z,100065.79
2017-12-17T16:35:08.790Z,100064.39
2017-12-17T16:41:12.309Z,100071.27
2017-12-17T16:47:15.866Z,100072.35
2017-12-17T16:53:20.325Z,100075.91
2017-12-17T16:59:24.793Z,100079.75
2017-12-17T17:05:28.393Z,100080.45
2017-12-17T17:11:32.695Z,100083.77
2017-12-17T17:17:36.207Z,100081.64
2017-12-17T17:23:40.481Z,100081.20
2017-12-17T17:29:44.743Z,100080.30
2017-12-17T17:35:49.024Z,100083.73
2017-12-17T17:41:52.771Z,100079.53
2017-12-17T17:47:56.604Z,100071.70
2017-12-17T17:54:00.131Z,100074.14
2017-12-17T18:00:03.784Z,100070.23
2017-12-17T18:06:07.571Z,100069.67
2017-12-17T18:12:11.108Z,100077.95
2017-12-17T18:18:14.621Z,100076.47
2017-12-17T18:24:18.224Z,100072.50
2017-12-17T18:30:22.741Z,100067.73
2017-12-17T18:36:26.449Z,100070.65
2017-12-17T18:42:29.984Z,100081.86
2017-12-17T18:48:34.322Z,100083.39
2017-12-17T18:54:37.873Z,100087.64
2017-12-17T19:00:41.416Z,100084.22
2017-12-17T19:06:44.917Z,100077.15
2017-12-17T19:12:49.211Z,100079.72
2017-12-17T19:18:52.876Z,100078.84
2017-12-17T19:24:56.783Z,100082.08
2017-12-17T19:31:01.868Z,100083.30
2017-12-17T19:37:05.394Z,100088.52
2017-12-17T19:43:09.044Z,100087.87
2017-12-17T19:49:12.585Z,100093.55
2017-12-17T19:55:16.115Z,100090.77
2017-12-17T20:01:20.989Z,100085.75
2017-12-17T20:07:24.849Z,100084.98
2017-12-17T20:13:28.456Z,100089.98
2017-12-17T20:19:32.161Z,100098.37
2017-12-17T20:25:35.706Z,100090.70
2017-12-17T20:31:39.222Z,100096.84
2017-12-17T20:37:42.741Z,100093.45
2017-12-17T20:43:46.372Z,100081.65
2017-12-17T20:49:49.984Z,100079.53
2017-12-17T20:55:53.800Z,100091.23
2017-12-17T21:01:57.391Z,100089.45
2017-12-17T21:08:01.669Z,100091.33
2017-12-17T21:14:05.902Z,100093.54
2017-12-17T21:20:09.361Z,100095.30
2017-12-17T21:26:12.833Z,100099.23
2017-12-17T21:32:17.071Z,100089.77
2017-12-17T21:38:20.568Z,100083.30
2017-12-17T21:44:24.296Z,100086.56
2017-12-17T21:50:27.894Z,100100.45
2017-12-17T21:56:31.382Z,100092.87
2017-12-17T22:02:34.870Z,100090.73
2017-12-17T22:08:38.438Z,100098.30
2017-12-17T22:14:42.694Z,100084.36
2017-12-17T22:20:46.263Z,100076.60
2017-12-17T22:26:50.958Z,100066.75
2017-12-17T22:32:54.719Z,100055.85
2017-12-17T22:38:58.990Z,100047.50
2017-12-17T22:45:03.234Z,100049.59
2017-12-17T22:51:06.842Z,100046.00
2017-12-17T22:57:10.345Z,100039.91
2017-12-17T23:03:13.816Z,100029.59
2017-12-17T23:09:18.088Z,100016.23
2017-12-17T23:15:22.475Z,100008.36
2017-12-17T23:21:25.967Z,99998.17
2017-12-17T23:27:29.623Z,99991.14
2017-12-17T23:33:33.109Z,99987.48
2017-12-17T23:39:36.778Z,99979.05
2017-12-17T23:45:40.234Z,99974.18
2017-12-17T23:51:44.746Z,99968.70
2017-12-17T23:57:48.206Z,99950.34
